Time;durP1;ratioP1;P1;durP2;ratioP2;P2;SDS_P1;SDS_P2;PMS_P1;PMS_P2;Temp;Humidity;BMP_temperature;BMP_pressure;BME280_temperature;BME280_humidity;BME280_pressure;Samples;Min_cycle;Max_cycle;Signal;HPM_P1;HPM_P2
2022/06/09 00:01:31;;;;;;;3.97;2.17;;;17.60;91.80;;;;;;4936876;29;20031;-78
2022/06/09 00:04:04;;;;;;;3.13;1.80;;;17.60;91.80;;;;;;4953806;28;20111;-78
2022/06/09 00:06:38;;;;;;;3.28;1.67;;;17.60;91.90;;;;;;4965868;28;20027;-78
2022/06/09 00:09:04;;;;;;;3.03;1.88;;;17.60;91.90;;;;;;4973266;28;20023;-78
2022/06/09 00:11:33;;;;;;;3.20;1.70;;;17.50;91.90;;;;;;4956080;28;20480;-77
2022/06/09 00:13:59;;;;;;;4.35;1.90;;;17.60;92.00;;;;;;4972967;28;20041;-77
2022/06/09 00:16:25;;;;;;;3.03;1.77;;;17.60;92.00;;;;;;4955910;28;20023;-77
2022/06/09 00:18:51;;;;;;;3.28;1.80;;;17.60;92.10;;;;;;4974467;28;20058;-77
2022/06/09 00:21:16;;;;;;;3.72;2.00;;;17.60;92.10;;;;;;4955954;28;20054;-76
2022/06/09 00:23:42;;;;;;;2.45;1.70;;;17.50;92.10;;;;;;4972850;28;20042;-77
2022/06/09 00:26:08;;;;;;;3.67;1.77;;;17.60;92.10;;;;;;4955254;28;20039;-77
2022/06/09 00:28:33;;;;;;;3.78;1.80;;;17.50;92.10;;;;;;4972844;28;20034;-77
2022/06/09 00:30:59;;;;;;;4.22;1.80;;;17.50;92.10;;;;;;4972710;28;20042;-77
2022/06/09 00:33:25;;;;;;;2.58;1.50;;;17.50;92.10;;;;;;4987683;28;20014;-77
2022/06/09 00:35:50;;;;;;;3.25;1.80;;;17.50;92.10;;;;;;4987771;28;20026;-77
2022/06/09 00:38:16;;;;;;;3.92;2.20;;;17.50;92.10;;;;;;4955288;28;20034;-78
2022/06/09 00:40:41;;;;;;;5.35;2.13;;;17.50;92.10;;;;;;4987700;28;20022;-78
2022/06/09 00:43:07;;;;;;;4.43;2.50;;;17.50;92.10;;;;;;4987697;28;20022;-77
2022/06/09 00:45:39;;;;;;;3.60;2.08;;;17.60;92.10;;;;;;4956147;28;20085;-77
2022/06/09 00:48:28;;;;;;;4.78;2.67;;;17.60;92.00;;;;;;4976260;28;20035;-78
2022/06/09 00:51:09;;;;;;;4.45;2.35;;;17.60;91.90;;;;;;4991368;28;20029;-77
2022/06/09 00:53:38;;;;;;;5.60;3.03;;;17.60;91.90;;;;;;4958810;28;20023;-77
2022/06/09 00:56:06;;;;;;;4.82;2.65;;;17.60;91.80;;;;;;4976219;28;20026;-77
2022/06/09 00:58:36;;;;;;;4.50;2.60;;;17.60;92.00;;;;;;4991105;28;20369;-77
2022/06/09 01:01:06;;;;;;;4.35;2.22;;;17.60;91.80;;;;;;4958922;28;20031;-77
2022/06/09 01:03:56;;;;;;;4.50;2.35;;;17.60;91.80;;;;;;4975809;28;20086;-77
2022/06/09 01:06:27;;;;;;;4.30;2.47;;;17.60;91.90;;;;;;4958557;28;20087;-77
2022/06/09 01:08:58;;;;;;;;;;;17.60;91.90;;;;;;4958999;28;20118;-78
2022/06/09 01:11:24;;;;;;;3.72;2.13;;;17.60;92.00;;;;;;4958275;28;19907;-77
2022/06/09 01:17:20;;;;;;;5.30;2.63;;;17.50;92.00;;;;;;4975764;28;20115;-76
2022/06/09 01:20:19;;;;;;;4.18;2.40;;;17.50;92.00;;;;;;4975627;28;20027;-77
2022/06/09 01:23:16;;;;;;;4.80;2.33;;;17.50;92.10;;;;;;4975743;28;20049;-77
2022/06/09 01:26:07;;;;;;;5.18;2.55;;;17.50;92.10;;;;;;4975267;28;20031;-77
2022/06/09 01:28:56;;;;;;;4.78;2.90;;;17.50;92.10;;;;;;4975630;28;20074;-76
2022/06/09 01:32:02;;;;;;;5.50;2.97;;;17.50;92.10;;;;;;4958231;28;20066;-77
2022/06/09 01:34:45;;;;;;;4.70;2.60;;;17.50;92.10;;;;;;4958179;28;20054;-76
2022/06/09 01:37:17;;;;;;;5.30;3.10;;;17.50;92.10;;;;;;4975370;28;20174;-77
2022/06/09 01:39:49;;;;;;;5.13;3.08;;;17.50;92.20;;;;;;4957792;28;20093;-77
2022/06/09 01:42:31;;;;;;;4.70;2.83;;;17.50;92.20;;;;;;4975044;28;20034;-77
2022/06/09 01:45:13;;;;;;;5.78;3.20;;;17.50;92.10;;;;;;4957680;28;20042;-78
2022/06/09 01:47:53;;;;;;;4.55;2.53;;;17.50;92.10;;;;;;4957733;28;20031;-78
2022/06/09 01:50:40;;;;;;;6.00;3.10;;;17.60;92.00;;;;;;4957968;28;20079;-78
2022/06/09 01:53:14;;;;;;;5.00;2.83;;;17.60;91.90;;;;;;4974698;28;20415;-78
2022/06/09 01:55:48;;;;;;;4.82;3.13;;;17.60;91.90;;;;;;4957382;28;20037;-77
2022/06/09 01:58:17;;;;;;;5.78;3.03;;;17.60;91.80;;;;;;4956915;28;20169;-77
2022/06/09 02:00:43;;;;;;;6.18;3.95;;;17.60;91.80;;;;;;4974867;28;20031;-77
2022/06/09 02:03:22;;;;;;;6.03;3.63;;;17.60;91.80;;;;;;4989604;28;20026;-78
2022/06/09 02:05:50;;;;;;;5.53;3.20;;;17.60;91.80;;;;;;4957430;28;20038;-77
2022/06/09 02:08:23;;;;;;;4.80;2.90;;;17.60;91.90;;;;;;4989437;28;20023;-77
2022/06/09 02:10:54;;;;;;;4.80;2.80;;;17.50;91.90;;;;;;4989881;28;20027;-77
2022/06/09 02:13:27;;;;;;;;;;;17.60;92.00;;;;;;4957733;28;20162;-78
2022/06/09 02:15:56;;;;;;;4.68;3.13;;;17.50;92.00;;;;;;4957286;28;20399;-78
2022/06/09 02:18:24;;;;;;;5.32;2.80;;;17.50;92.00;;;;;;4957045;28;20041;-78
2022/06/09 02:21:01;;;;;;;4.90;2.97;;;17.50;92.10;;;;;;4989618;28;20042;-78
2022/06/09 02:23:27;;;;;;;5.78;3.17;;;17.50;92.10;;;;;;4989214;28;20038;-78
2022/06/09 02:25:52;;;;;;;5.25;2.90;;;17.50;92.10;;;;;;4974410;28;20035;-77
2022/06/09 02:28:18;;;;;;;4.90;3.05;;;17.50;92.10;;;;;;4956929;28;20054;-78
2022/06/09 02:30:44;;;;;;;6.22;3.28;;;17.50;92.10;;;;;;4989228;28;20061;-78
2022/06/09 02:33:10;;;;;;;4.95;3.10;;;17.50;92.20;;;;;;4988973;28;20023;-78
2022/06/09 02:35:35;;;;;;;4.93;2.78;;;17.50;92.20;;;;;;4989311;28;20070;-77
2022/06/09 02:38:01;;;;;;;5.63;3.20;;;17.50;92.20;;;;;;4989244;28;20031;-76
2022/06/09 02:40:28;;;;;;;6.90;3.58;;;17.50;92.20;;;;;;4974072;28;20126;-76
2022/06/09 02:42:53;;;;;;;4.88;3.03;;;17.50;92.20;;;;;;4988970;28;20027;-77
2022/06/09 02:45:19;;;;;;;5.72;3.70;;;17.50;92.20;;;;;;4956825;28;20089;-78
2022/06/09 02:47:45;;;;;;;6.20;3.53;;;17.50;92.10;;;;;;4974181;28;20031;-77
2022/06/09 02:50:11;;;;;;;4.88;3.13;;;17.50;92.10;;;;;;4956755;28;20037;-77
2022/06/09 02:52:36;;;;;;;5.95;3.40;;;17.50;92.10;;;;;;4989065;28;20061;-77
2022/06/09 02:55:02;;;;;;;5.45;3.45;;;17.60;92.00;;;;;;4973146;28;20067;-77
2022/06/09 02:57:29;;;;;;;5.82;3.15;;;17.50;92.00;;;;;;4973871;28;20457;-78
2022/06/09 02:59:55;;;;;;;5.25;3.10;;;17.60;91.90;;;;;;4972318;28;20023;-77
2022/06/09 03:02:20;;;;;;;5.85;3.45;;;17.60;91.90;;;;;;4988988;28;20110;-77
2022/06/09 03:04:46;;;;;;;5.70;3.45;;;17.60;91.80;;;;;;4988387;28;20026;-76
2022/06/09 03:07:12;;;;;;;5.68;3.50;;;17.60;91.80;;;;;;4955663;28;20573;-77
2022/06/09 03:09:38;;;;;;;5.57;3.17;;;17.50;91.90;;;;;;4988458;28;20031;-78
2022/06/09 03:12:04;;;;;;;5.13;3.30;;;17.50;91.90;;;;;;4988690;28;20022;-78
2022/06/09 03:14:30;;;;;;;5.88;3.50;;;17.60;92.00;;;;;;4988268;28;20031;-78
2022/06/09 03:16:55;;;;;;;5.85;3.70;;;17.50;92.00;;;;;;4959665;28;20026;-78
2022/06/09 03:19:21;;;;;;;5.10;3.30;;;17.50;92.00;;;;;;4983643;28;20499;-77
2022/06/09 03:21:47;;;;;;;5.72;3.40;;;17.50;92.10;;;;;;4973199;28;20103;-77
2022/06/09 03:24:12;;;;;;;6.32;3.65;;;17.50;92.10;;;;;;4988347;28;20031;-77
2022/06/09 03:26:38;;;;;;;5.65;3.63;;;17.50;92.10;;;;;;4988658;28;20491;-77
2022/06/09 03:29:03;;;;;;;5.30;3.33;;;17.50;92.10;;;;;;4956143;28;20113;-77
2022/06/09 03:31:29;;;;;;;5.38;3.50;;;17.50;92.20;;;;;;4956241;28;20027;-78
2022/06/09 03:33:55;;;;;;;5.57;3.50;;;17.50;92.20;;;;;;4972934;28;20023;-77
2022/06/09 03:36:20;;;;;;;5.35;3.42;;;17.50;92.20;;;;;;4973435;28;20041;-77
2022/06/09 03:38:46;;;;;;;5.68;3.40;;;17.50;92.20;;;;;;4973063;28;20081;-78
2022/06/09 03:41:11;;;;;;;5.97;3.40;;;17.40;92.20;;;;;;4988479;28;20080;-77
2022/06/09 03:43:37;;;;;;;5.90;3.35;;;17.40;92.20;;;;;;4972307;28;20034;-78
2022/06/09 03:46:03;;;;;;;5.65;3.65;;;17.50;92.20;;;;;;4988313;28;20519;-77
2022/06/09 03:48:29;;;;;;;5.63;3.50;;;17.50;92.20;;;;;;4988400;28;20492;-77
2022/06/09 03:50:55;;;;;;;5.53;3.40;;;17.50;92.10;;;;;;4968481;28;20058;-76
2022/06/09 03:53:20;;;;;;;5.88;3.72;;;17.50;92.10;;;;;;4992533;28;20116;-77
2022/06/09 03:55:46;;;;;;;5.65;3.67;;;17.50;92.00;;;;;;4992613;28;20404;-78
2022/06/09 03:58:12;;;;;;;6.20;3.70;;;17.50;91.90;;;;;;4991319;28;20113;-77
2022/06/09 04:00:38;;;;;;;6.20;3.60;;;17.60;91.90;;;;;;4973279;28;20062;-77
2022/06/09 04:03:04;;;;;;;6.05;3.90;;;17.60;91.90;;;;;;4964582;28;20057;-77
2022/06/09 04:05:30;;;;;;;5.97;3.63;;;17.60;91.80;;;;;;4973035;28;20497;-77
2022/06/09 04:07:58;;;;;;;5.97;3.72;;;17.60;91.80;;;;;;4955549;28;20050;-77
2022/06/09 04:10:26;;;;;;;6.25;3.80;;;17.50;91.90;;;;;;4955730;28;22046;-77
2022/06/09 04:12:52;;;;;;;5.57;3.67;;;17.60;91.90;;;;;;4987589;28;20027;-78
2022/06/09 04:15:19;;;;;;;6.22;3.58;;;17.50;92.00;;;;;;4987938;28;20030;-77
2022/06/09 04:17:45;;;;;;;5.30;3.33;;;17.50;92.00;;;;;;4988225;28;20033;-77
2022/06/09 04:20:12;;;;;;;5.45;3.50;;;17.50;92.10;;;;;;4988347;28;20035;-77
2022/06/09 04:22:38;;;;;;;6.38;4.05;;;17.50;92.10;;;;;;4991671;28;20030;-77
2022/06/09 04:25:04;;;;;;;5.60;3.65;;;17.50;92.10;;;;;;4976370;28;20030;-76
2022/06/09 04:27:30;;;;;;;5.55;3.58;;;17.50;92.10;;;;;;4990663;28;20034;-77
2022/06/09 04:29:57;;;;;;;6.20;3.90;;;17.50;92.10;;;;;;4991118;28;20027;-78
2022/06/09 04:32:23;;;;;;;6.03;3.85;;;17.40;92.10;;;;;;4987591;28;20117;-77
2022/06/09 04:34:49;;;;;;;5.53;3.53;;;17.50;92.20;;;;;;4958341;28;20408;-77
2022/06/09 04:37:14;;;;;;;6.13;3.90;;;17.50;92.20;;;;;;4972521;28;20028;-78
2022/06/09 04:39:41;;;;;;;6.90;3.65;;;17.50;92.20;;;;;;4957373;29;20632;-78
2022/06/09 04:42:07;;;;;;;6.90;3.97;;;17.40;92.20;;;;;;4968002;28;20560;-78
2022/06/09 04:44:32;;;;;;;6.47;4.30;;;17.50;92.20;;;;;;4971576;28;20117;-77
2022/06/09 04:46:58;;;;;;;6.22;4.05;;;17.50;92.20;;;;;;4982718;28;20027;-78
2022/06/09 04:49:23;;;;;;;5.68;3.65;;;17.50;92.20;;;;;;4976190;28;20023;-77
2022/06/09 04:51:49;;;;;;;6.50;4.07;;;17.50;92.10;;;;;;4959012;28;20042;-78
2022/06/09 04:54:15;;;;;;;6.65;4.18;;;17.50;92.10;;;;;;4958471;28;20034;-78
2022/06/09 04:56:40;;;;;;;5.75;3.53;;;17.50;92.00;;;;;;4974978;28;20117;-77
2022/06/09 04:59:06;;;;;;;6.97;4.20;;;17.60;92.00;;;;;;4975822;28;20031;-77
2022/06/09 05:01:31;;;;;;;6.35;4.03;;;17.50;91.90;;;;;;4948112;28;20027;-77
2022/06/09 05:03:58;;;;;;;5.65;3.78;;;17.60;91.90;;;;;;4964987;28;20042;-78
2022/06/09 05:06:24;;;;;;;5.43;3.70;;;17.50;91.80;;;;;;4975165;28;20518;-77
2022/06/09 05:08:52;;;;;;;5.88;4.00;;;17.60;91.80;;;;;;4958644;28;20027;-76
2022/06/09 05:11:18;;;;;;;6.10;4.00;;;17.60;91.90;;;;;;4975521;28;20026;-78
2022/06/09 05:13:44;;;;;;;6.45;4.60;;;17.50;91.90;;;;;;4958287;28;20023;-78
2022/06/09 05:16:10;;;;;;;5.82;3.90;;;17.50;91.90;;;;;;4957998;28;20448;-77
2022/06/09 05:18:37;;;;;;;6.22;3.95;;;17.50;92.00;;;;;;4984754;28;20061;-78
2022/06/09 05:21:03;;;;;;;6.72;4.25;;;17.50;92.00;;;;;;4987507;28;20033;-77
2022/06/09 05:23:29;;;;;;;5.75;4.03;;;17.50;92.10;;;;;;4977199;28;20031;-77
2022/06/09 05:25:57;;;;;;;6.28;4.00;;;17.50;92.10;;;;;;4975512;28;20031;-77
2022/06/09 05:28:25;;;;;;;5.65;3.50;;;17.50;92.10;;;;;;4990481;28;20679;-78
2022/06/09 05:30:50;;;;;;;5.80;3.70;;;17.40;92.10;;;;;;4990602;28;20030;-78
2022/06/09 05:33:16;;;;;;;6.15;4.05;;;17.50;92.20;;;;;;4974147;28;20027;-77
2022/06/09 05:35:42;;;;;;;5.95;3.80;;;17.40;92.10;;;;;;4958225;28;20184;-76
2022/06/09 05:46:24;;;;;;;5.88;3.95;;;17.50;92.20;;;;;;4975410;28;20407;-76
2022/06/09 05:48:49;;;;;;;5.65;3.78;;;17.50;92.20;;;;;;4975125;28;20035;-76
2022/06/09 05:51:16;;;;;;;5.90;4.07;;;17.40;92.20;;;;;;4975505;28;20018;-77
2022/06/09 05:53:42;;;;;;;6.20;4.38;;;17.50;92.10;;;;;;4989777;28;20058;-77
2022/06/09 05:56:09;;;;;;;6.50;4.18;;;17.50;92.10;;;;;;4975176;28;20480;-76
2022/06/09 05:58:35;;;;;;;6.22;4.05;;;17.50;92.00;;;;;;4975299;28;20039;-77
2022/06/09 06:01:03;;;;;;;5.90;4.07;;;17.60;91.90;;;;;;4975046;28;20109;-76
2022/06/09 06:03:29;;;;;;;5.53;3.80;;;17.60;91.80;;;;;;4975082;28;20031;-77
2022/06/09 06:08:39;;;;;;;6.38;4.03;;;17.60;91.80;;;;;;4974951;28;20038;-76
2022/06/09 06:11:05;;;;;;;5.93;3.65;;;17.60;91.80;;;;;;4989712;28;20019;-76
2022/06/09 06:13:31;;;;;;;6.15;4.20;;;17.60;91.80;;;;;;4974527;28;20034;-75
2022/06/09 06:15:56;;;;;;;5.57;3.85;;;17.60;91.80;;;;;;4989841;28;20027;-77
2022/06/09 06:18:23;;;;;;;6.32;4.18;;;17.60;91.90;;;;;;4976006;28;20027;-76
2022/06/09 06:20:48;;;;;;;6.72;4.25;;;17.60;91.90;;;;;;4989685;28;20046;-76
2022/06/09 06:23:14;;;;;;;5.93;4.18;;;17.50;91.90;;;;;;4974333;28;20031;-76
2022/06/09 06:25:40;;;;;;;5.55;3.97;;;17.50;92.00;;;;;;4974453;28;20038;-76
2022/06/09 06:28:05;;;;;;;6.22;3.95;;;17.50;92.00;;;;;;4989531;28;20057;-77
2022/06/09 06:30:31;;;;;;;5.88;4.07;;;17.50;92.00;;;;;;4989309;28;20027;-76
2022/06/09 06:32:57;;;;;;;6.25;4.47;;;17.50;92.00;;;;;;4974250;28;20031;-76
2022/06/09 06:35:22;;;;;;;6.03;4.28;;;17.50;92.10;;;;;;4974102;28;20038;-76
2022/06/09 06:37:48;;;;;;;5.82;4.18;;;17.50;92.10;;;;;;4956993;28;20479;-77
2022/06/09 06:40:14;;;;;;;5.80;4.10;;;17.50;92.10;;;;;;4957100;28;20027;-77
2022/06/09 06:42:41;;;;;;;6.22;4.13;;;17.50;92.10;;;;;;4974491;28;20074;-77
2022/06/09 06:45:07;;;;;;;6.40;4.40;;;17.50;92.10;;;;;;4988688;28;20078;-77
2022/06/09 06:47:32;;;;;;;6.32;4.10;;;17.50;92.10;;;;;;4974030;28;20496;-77
2022/06/09 06:49:58;;;;;;;6.55;3.95;;;17.50;92.10;;;;;;4974115;28;20045;-77
2022/06/09 06:52:23;;;;;;;6.45;4.50;;;17.50;92.10;;;;;;4974378;28;20030;-78
2022/06/09 06:54:49;;;;;;;6.15;4.20;;;17.50;92.00;;;;;;4956187;28;20031;-78
2022/06/09 06:57:15;;;;;;;6.82;4.60;;;17.50;92.00;;;;;;4989104;28;20022;-77
2022/06/09 06:59:41;;;;;;;6.25;4.50;;;17.50;91.90;;;;;;4974359;28;20027;-77
2022/06/09 07:02:09;;;;;;;6.05;4.18;;;17.60;91.80;;;;;;4974013;28;20487;-78
2022/06/09 07:04:35;;;;;;;5.43;4.13;;;17.60;91.80;;;;;;4988518;28;20023;-77
2022/06/09 07:07:00;;;;;;;6.15;4.13;;;17.60;91.70;;;;;;4973743;28;20122;-78
2022/06/09 07:09:26;;;;;;;6.35;4.22;;;17.60;91.60;;;;;;4973858;28;20438;-77
2022/06/09 07:11:51;;;;;;;6.25;4.50;;;17.70;91.70;;;;;;4988933;28;20019;-77
2022/06/09 07:14:17;;;;;;;6.78;4.38;;;17.60;91.60;;;;;;4973508;28;20027;-77
2022/06/09 07:16:42;;;;;;;6.50;4.47;;;17.60;91.70;;;;;;4988777;28;20117;-76
2022/06/09 07:19:08;;;;;;;6.00;4.10;;;17.60;91.70;;;;;;4973717;28;20039;-76
2022/06/09 07:21:33;;;;;;;5.93;4.10;;;17.60;91.80;;;;;;4956514;28;20122;-77
2022/06/09 07:23:59;;;;;;;6.45;3.97;;;17.60;91.80;;;;;;4988176;28;20089;-77
2022/06/09 07:26:25;;;;;;;5.70;4.13;;;17.60;91.80;;;;;;4988516;28;20038;-76
2022/06/09 07:28:51;;;;;;;6.60;4.40;;;17.60;91.90;;;;;;4988500;28;20031;-76
2022/06/09 07:31:16;;;;;;;6.10;4.10;;;17.60;91.90;;;;;;4956312;28;20038;-77
2022/06/09 07:33:42;;;;;;;5.90;4.03;;;17.50;91.80;;;;;;4973317;28;20061;-77
2022/06/09 07:36:11;;;;;;;5.63;4.10;;;17.60;91.90;;;;;;4988463;28;20420;-78
2022/06/09 07:38:37;;;;;;;6.20;4.25;;;17.60;91.80;;;;;;4973380;28;20169;-77
2022/06/09 07:41:03;;;;;;;7.00;4.40;;;17.60;91.80;;;;;;4988537;28;20066;-77
2022/06/09 07:43:29;;;;;;;5.97;4.00;;;17.60;91.80;;;;;;4988206;28;20051;-77
2022/06/09 07:45:54;;;;;;;6.47;4.00;;;17.60;91.80;;;;;;4988428;28;20448;-78
2022/06/09 07:48:20;;;;;;;6.72;4.47;;;17.60;91.80;;;;;;4988374;28;20126;-76
2022/06/09 07:50:47;;;;;;;5.90;4.25;;;17.60;91.80;;;;;;4988381;28;20027;-77
2022/06/09 07:53:13;;;;;;;6.30;4.15;;;17.60;91.80;;;;;;4987976;28;20031;-76
2022/06/09 07:55:39;;;;;;;5.80;4.07;;;17.60;91.80;;;;;;4957187;28;20389;-76
2022/06/09 07:58:04;;;;;;;5.47;3.90;;;17.60;91.70;;;;;;4992420;28;20385;-76
2022/06/09 08:00:31;;;;;;;5.82;3.95;;;17.70;91.70;;;;;;4992379;28;20099;-77
2022/06/09 08:02:57;;;;;;;6.53;4.40;;;17.60;91.60;;;;;;4976939;28;20031;-76
2022/06/09 08:05:26;;;;;;;5.97;4.00;;;17.70;91.50;;;;;;4992034;28;20041;-76
2022/06/09 08:07:52;;;;;;;5.60;4.10;;;17.70;91.50;;;;;;4977007;28;20027;-76
2022/06/09 08:10:20;;;;;;;6.63;4.30;;;17.70;91.50;;;;;;4976998;28;20381;-76
2022/06/09 08:12:53;;;;;;;5.82;3.97;;;17.70;91.50;;;;;;4977042;28;20023;-75
2022/06/09 08:15:19;;;;;;;6.20;4.30;;;17.70;91.50;;;;;;4991853;28;20030;-77
2022/06/09 08:17:45;;;;;;;5.90;4.00;;;17.70;91.60;;;;;;4992081;28;20118;-76
2022/06/09 08:20:12;;;;;;;6.30;4.40;;;17.60;91.60;;;;;;4991892;28;20499;-76
2022/06/09 08:22:40;;;;;;;5.95;4.18;;;17.60;91.60;;;;;;4991754;28;20118;-76
2022/06/09 08:25:08;;;;;;;6.45;4.22;;;17.70;91.70;;;;;;4976526;28;20046;-76
2022/06/09 08:27:34;;;;;;;6.32;4.45;;;17.70;91.70;;;;;;4991686;28;20034;-77
2022/06/09 08:30:00;;;;;;;6.05;4.07;;;17.70;91.70;;;;;;4991691;28;20396;-76
2022/06/09 08:32:25;;;;;;;5.75;4.20;;;17.70;91.70;;;;;;4991675;28;20023;-76
2022/06/09 08:34:51;;;;;;;5.82;4.03;;;17.70;91.70;;;;;;4976384;28;20027;-76
2022/06/09 08:37:16;;;;;;;5.80;4.25;;;17.70;91.70;;;;;;4991559;28;20027;-77
2022/06/09 08:39:42;;;;;;;5.68;3.85;;;17.70;91.70;;;;;;4991286;28;20031;-77
2022/06/09 08:42:23;;;;;;;6.45;4.35;;;17.70;91.70;;;;;;4991413;28;20033;-77
2022/06/09 08:45:02;;;;;;;5.97;4.30;;;17.60;91.70;;;;;;4974992;28;20465;-77
2022/06/09 08:47:34;;;;;;;6.22;4.13;;;17.60;91.70;;;;;;4991385;28;20037;-77
2022/06/09 08:50:27;;;;;;;5.90;4.00;;;17.60;91.70;;;;;;4975305;28;20034;-77
2022/06/09 08:53:01;;;;;;;6.20;4.32;;;17.60;91.70;;;;;;4976038;28;20504;-76
2022/06/09 08:55:42;;;;;;;6.05;4.03;;;17.60;91.70;;;;;;4976144;28;20034;-78
2022/06/09 08:58:16;;;;;;;5.53;3.83;;;17.70;91.60;;;;;;4977176;28;20528;-81
2022/06/09 09:00:48;;;;;;;5.90;4.05;;;17.70;91.50;;;;;;4976916;28;20027;-77
2022/06/09 09:03:19;;;;;;;;;;;17.80;91.40;;;;;;4976572;28;20057;-78
2022/06/09 09:06:25;;;;;;;5.68;4.10;;;17.80;91.30;;;;;;4958728;28;19910;-78
2022/06/09 09:08:55;;;;;;;5.65;3.90;;;17.90;91.20;;;;;;4964148;28;20412;-77
2022/06/09 09:11:35;;;;;;;5.72;3.97;;;17.90;91.10;;;;;;4958890;28;20032;-78
2022/06/09 09:14:06;;;;;;;5.93;4.00;;;17.90;91.00;;;;;;4975535;28;20400;-77
2022/06/09 09:17:00;;;;;;;7.15;3.95;;;18.00;90.90;;;;;;4977065;28;20042;-78
2022/06/09 09:19:35;;;;;;;6.05;3.97;;;18.00;90.90;;;;;;4957955;28;20077;-74
2022/06/09 09:22:17;;;;;;;6.13;4.20;;;18.00;90.90;;;;;;4975843;28;20073;-77
2022/06/09 09:25:09;;;;;;;6.05;4.18;;;17.90;91.00;;;;;;4974343;28;20512;-78
2022/06/09 09:28:02;;;;;;;5.93;3.97;;;17.90;91.00;;;;;;4975826;28;20034;-78
2022/06/09 09:30:37;;;;;;;6.50;4.35;;;17.90;91.10;;;;;;4975764;28;20098;-79
2022/06/09 09:33:02;;;;;;;5.60;3.85;;;17.90;91.20;;;;;;4958661;28;20385;-78
2022/06/09 09:35:38;;;;;;;5.55;3.92;;;17.90;91.10;;;;;;4958300;28;20027;-79
2022/06/09 09:38:04;;;;;;;5.82;3.80;;;17.90;91.00;;;;;;4990532;28;20062;-79
2022/06/09 09:40:42;;;;;;;5.65;4.03;;;18.00;91.00;;;;;;4990534;28;20023;-78
2022/06/09 09:43:14;;;;;;;5.95;4.13;;;18.00;90.90;;;;;;4990653;28;20463;-77
2022/06/09 09:45:44;;;;;;;5.70;4.15;;;18.00;90.80;;;;;;4975723;28;20085;-78
2022/06/09 09:48:21;;;;;;;5.93;3.80;;;18.10;90.80;;;;;;4976464;28;20031;-82
2022/06/09 09:50:56;;;;;;;5.85;3.92;;;18.10;90.80;;;;;;4974130;28;20023;-79
2022/06/09 09:53:36;;;;;;;5.57;3.88;;;18.00;90.80;;;;;;4975461;28;20484;-78
2022/06/09 09:56:22;;;;;;;5.95;4.10;;;18.10;90.70;;;;;;4978000;28;20031;-79
2022/06/09 09:58:48;;;;;;;6.07;4.25;;;18.10;90.70;;;;;;4961076;28;20077;-84
2022/06/09 10:01:16;;;;;;;6.35;4.38;;;18.10;90.60;;;;;;4975605;28;20026;-77
2022/06/09 10:09:52;;;;;;;6.10;4.03;;;18.20;90.40;;;;;;4974975;28;20030;-74
2022/06/09 10:12:31;;;;;;;5.95;4.13;;;18.30;90.30;;;;;;4974728;28;20054;-75
2022/06/09 10:15:03;;;;;;;7.72;4.13;;;18.30;90.20;;;;;;4974270;28;20400;-75
2022/06/09 10:17:32;;;;;;;5.10;3.63;;;18.30;90.20;;;;;;4974612;28;20026;-75
2022/06/09 10:20:14;;;;;;;5.95;3.90;;;18.40;90.10;;;;;;4972785;28;20027;-74
2022/06/09 10:22:43;;;;;;;6.28;4.22;;;18.30;90.20;;;;;;4973569;28;20559;-77
2022/06/09 10:25:38;;;;;;;8.18;4.60;;;18.30;90.30;;;;;;4974499;28;20034;-78
2022/06/09 10:28:12;;;;;;;5.60;3.85;;;18.20;90.40;;;;;;4973282;28;20110;-78
2022/06/09 10:30:49;;;;;;;6.22;4.13;;;18.20;90.60;;;;;;4973430;28;20495;-78
2022/06/09 10:33:20;;;;;;;6.05;3.85;;;18.20;90.60;;;;;;4989360;28;20097;-78
2022/06/09 10:35:55;;;;;;;6.35;4.25;;;18.20;90.60;;;;;;4974241;28;20027;-77
2022/06/09 10:38:31;;;;;;;6.72;3.88;;;18.20;90.50;;;;;;4957187;28;20579;-77
2022/06/09 10:41:00;;;;;;;5.65;3.92;;;18.20;90.60;;;;;;4989368;28;20074;-77
2022/06/09 10:43:40;;;;;;;5.88;3.80;;;18.20;90.60;;;;;;4989077;28;20026;-78
2022/06/09 10:46:12;;;;;;;6.78;4.30;;;18.10;90.70;;;;;;4974485;28;20031;-77
2022/06/09 10:55:14;;;;;;;6.53;4.38;;;18.00;90.90;;;;;;4973794;28;20046;-78
2022/06/09 10:57:49;;;;;;;5.45;3.97;;;18.00;91.00;;;;;;4956856;28;20030;-78
2022/06/09 11:00:42;;;;;;;6.10;4.20;;;18.00;91.10;;;;;;4972959;28;20081;-77
2022/06/09 11:03:13;;;;;;;6.07;3.90;;;18.00;91.10;;;;;;4974042;28;20388;-77
2022/06/09 11:06:00;;;;;;;7.05;4.20;;;18.00;91.10;;;;;;4972715;28;20027;-77
2022/06/09 11:08:37;;;;;;;5.22;3.50;;;18.00;91.00;;;;;;4972711;28;20031;-77
2022/06/09 11:11:23;;;;;;;7.25;4.18;;;18.10;91.00;;;;;;4972382;28;20514;-77
2022/06/09 11:14:04;;;;;;;5.28;3.55;;;18.20;90.90;;;;;;4957055;28;20034;-77
2022/06/09 11:16:51;;;;;;;5.55;3.85;;;18.10;90.70;;;;;;4993474;28;20072;-78
2022/06/09 11:19:30;;;;;;;6.50;3.75;;;18.10;90.70;;;;;;4991921;28;20041;-74
2022/06/09 11:22:07;;;;;;;5.40;3.60;;;18.20;90.80;;;;;;4975425;28;20038;-74
2022/06/09 11:24:55;;;;;;;5.80;3.45;;;18.10;90.90;;;;;;4991379;28;20088;-77
2022/06/09 11:27:25;;;;;;;5.32;3.65;;;18.10;90.90;;;;;;4975679;28;20054;-78
2022/06/09 11:30:22;;;;;;;6.18;4.05;;;18.00;90.90;;;;;;4992882;28;20045;-79
2022/06/09 11:33:01;;;;;;;5.25;3.60;;;18.00;91.00;;;;;;4991924;28;20026;-78
2022/06/09 11:35:55;;;;;;;5.65;3.67;;;18.00;91.00;;;;;;4991837;28;20027;-78
2022/06/09 11:38:40;;;;;;;5.65;3.80;;;18.00;91.00;;;;;;4991665;28;20085;-78
2022/06/09 11:41:12;;;;;;;5.70;3.90;;;18.00;91.10;;;;;;4975485;28;20026;-78
2022/06/09 11:43:46;;;;;;;;;;;18.00;91.10;;;;;;4975731;28;20069;-78
2022/06/09 11:46:38;;;;;;;5.50;3.58;;;18.00;91.10;;;;;;5008034;28;19956;-77
2022/06/09 11:49:11;;;;;;;4.80;3.50;;;18.00;91.20;;;;;;4991111;28;20038;-77
2022/06/09 11:51:41;;;;;;;5.13;3.60;;;18.00;91.20;;;;;;4993116;28;20042;-77
2022/06/09 11:54:28;;;;;;;5.93;3.83;;;17.90;91.20;;;;;;4992407;28;20118;-77
2022/06/09 11:57:16;;;;;;;6.40;4.00;;;17.90;91.20;;;;;;4991531;28;20033;-77
2022/06/09 12:00:12;;;;;;;6.13;3.67;;;17.90;91.30;;;;;;4975428;28;20408;-78
2022/06/09 12:02:56;;;;;;;5.47;3.53;;;17.90;91.60;;;;;;4992711;28;20034;-77
2022/06/09 12:05:36;;;;;;;5.07;3.55;;;18.00;91.30;;;;;;4975182;28;20030;-77
2022/06/09 12:08:12;;;;;;;5.10;3.25;;;18.00;91.20;;;;;;4991364;28;20026;-78
2022/06/09 12:10:56;;;;;;;5.10;3.50;;;18.00;91.10;;;;;;4993020;28;20019;-79
2022/06/09 12:13:24;;;;;;;5.20;3.42;;;18.00;91.00;;;;;;4992482;28;20530;-78
2022/06/09 12:15:52;;;;;;;6.00;3.85;;;18.10;90.90;;;;;;4992482;28;20094;-78
2022/06/09 12:18:19;;;;;;;4.95;3.42;;;18.10;90.80;;;;;;4975151;28;20029;-78
2022/06/09 12:20:48;;;;;;;5.32;3.42;;;18.20;90.70;;;;;;4976495;28;20080;-78
2022/06/09 12:23:50;;;;;;;5.43;3.50;;;18.20;90.70;;;;;;4974965;28;20037;-78
2022/06/09 12:26:18;;;;;;;5.53;3.38;;;18.10;90.70;;;;;;4975188;28;20420;-78
2022/06/09 12:28:49;;;;;;;6.65;3.88;;;18.10;90.70;;;;;;4992435;28;20023;-79
2022/06/09 12:31:24;;;;;;;5.18;3.50;;;18.10;90.70;;;;;;4975082;28;20025;-78
2022/06/09 12:34:05;;;;;;;5.07;3.33;;;18.10;90.80;;;;;;4991007;28;20026;-77
2022/06/09 12:36:55;;;;;;;5.15;3.58;;;18.10;90.80;;;;;;4975158;28;20019;-78
2022/06/09 12:39:25;;;;;;;5.18;3.50;;;18.10;90.90;;;;;;4965671;28;20068;-78
2022/06/09 12:42:22;;;;;;;4.35;3.03;;;18.10;90.90;;;;;;4992614;28;20025;-78
2022/06/09 12:44:54;;;;;;;5.07;3.38;;;18.10;90.90;;;;;;4987962;28;20611;-77
2022/06/09 12:47:23;;;;;;;4.75;3.47;;;18.00;91.00;;;;;;4994881;28;20026;-78
2022/06/09 12:49:58;;;;;;;5.65;3.60;;;18.00;91.00;;;;;;4995854;28;20029;-78
2022/06/09 12:52:26;;;;;;;5.38;3.58;;;18.00;91.10;;;;;;4994776;28;20026;-77
2022/06/09 12:54:57;;;;;;;5.32;3.40;;;18.00;91.10;;;;;;4995460;28;20061;-78
2022/06/09 12:57:27;;;;;;;4.82;3.10;;;18.00;91.20;;;;;;4995748;28;20041;-77
2022/06/09 13:00:05;;;;;;;4.80;3.10;;;18.00;91.20;;;;;;4995857;28;20496;-78
2022/06/09 13:02:34;;;;;;;4.88;3.25;;;18.00;91.20;;;;;;4994566;28;20034;-77
2022/06/09 13:05:15;;;;;;;4.65;3.25;;;18.00;91.30;;;;;;4994153;28;20073;-78
2022/06/09 13:08:12;;;;;;;5.07;3.47;;;18.00;91.20;;;;;;4994421;28;20030;-77
2022/06/09 13:10:43;;;;;;;5.05;3.28;;;18.00;91.10;;;;;;4978132;28;20080;-77
2022/06/09 13:13:22;;;;;;;4.85;3.35;;;18.00;91.10;;;;;;4978486;28;20031;-77
2022/06/09 13:16:00;;;;;;;5.28;3.28;;;18.10;91.00;;;;;;4975758;28;20090;-77
2022/06/09 13:18:35;;;;;;;4.75;3.20;;;18.10;91.00;;;;;;4958681;28;20030;-78
2022/06/09 13:21:36;;;;;;;5.13;3.30;;;18.10;91.00;;;;;;4958595;28;20031;-78
2022/06/09 13:24:03;;;;;;;5.03;3.10;;;18.00;91.00;;;;;;4959888;28;20089;-77
2022/06/09 13:26:38;;;;;;;4.35;2.95;;;18.00;91.10;;;;;;4958396;28;20480;-77
2022/06/09 13:29:15;;;;;;;4.85;3.47;;;18.00;91.10;;;;;;4975576;28;20034;-77
2022/06/09 13:31:44;;;;;;;4.80;3.22;;;18.00;91.20;;;;;;4958013;28;20069;-77
2022/06/09 13:34:12;;;;;;;4.22;2.88;;;17.90;91.20;;;;;;4958057;28;20026;-78
2022/06/09 13:36:41;;;;;;;5.30;3.30;;;17.90;91.30;;;;;;4958288;28;20026;-78